createdAt,value
2023-02-17T00:04:56.562Z,27.34
2023-02-17T00:09:56.573Z,23.19
2023-02-17T00:14:56.559Z,24.82
2023-02-17T00:19:56.570Z,23.97
2023-02-17T00:24:56.570Z,24.01
2023-02-17T00:29:56.647Z,25.53
2023-02-17T00:34:56.573Z,25.57
2023-02-17T00:39:56.611Z,27.94
2023-02-17T00:44:56.592Z,24.64
2023-02-17T00:49:56.586Z,23.31
2023-02-17T00:54:56.582Z,21.59
2023-02-17T00:59:56.600Z,22.06
2023-02-17T01:04:56.597Z,26.61
2023-02-17T01:09:56.592Z,28.91
2023-02-17T01:14:56.585Z,27.61
2023-02-17T01:19:56.637Z,26.29
2023-02-17T01:24:56.598Z,29.57
2023-02-17T01:29:56.635Z,25.83
2023-02-17T01:34:56.591Z,27.19
2023-02-17T01:39:56.619Z,27.74
2023-02-17T01:44:56.607Z,26.22
2023-02-17T01:49:56.599Z,25.85
2023-02-17T01:54:56.632Z,24.61
2023-02-17T01:59:56.622Z,23.77
2023-02-17T02:04:56.603Z,27.4
2023-02-17T02:09:56.621Z,26.13
2023-02-17T02:14:56.603Z,25.75
2023-02-17T02:19:56.616Z,24.4
2023-02-17T02:24:56.616Z,23.99
2023-02-17T02:29:56.635Z,22.65
2023-02-17T02:34:56.612Z,24.28
2023-02-17T02:39:56.641Z,24.39
2023-02-17T02:44:56.656Z,23.59
2023-02-17T02:49:56.610Z,25.68
2023-02-17T02:54:56.652Z,26.82
2023-02-17T02:59:56.648Z,25.51
2023-02-17T03:04:56.650Z,26.69
2023-02-17T03:09:56.634Z,26.32
2023-02-17T03:14:56.636Z,29.34
2023-02-17T03:19:56.622Z,28.71
2023-02-17T03:24:56.664Z,25.45
2023-02-17T03:29:56.697Z,25.94
2023-02-17T03:34:56.689Z,27.95
2023-02-17T03:39:56.641Z,28.58
2023-02-17T03:44:56.637Z,24.55
2023-02-17T03:49:56.668Z,20.83
2023-02-17T03:54:56.642Z,23.73
2023-02-17T03:59:56.650Z,25.74
2023-02-17T04:04:56.674Z,20.12
2023-02-17T04:09:56.635Z,20.58
2023-02-17T04:14:56.634Z,26.34
2023-02-17T04:19:56.648Z,27.22
2023-02-17T04:24:56.654Z,24.48
2023-02-17T04:29:56.705Z,25.38
2023-02-17T04:34:56.646Z,27.05
2023-02-17T04:39:56.652Z,25.57
2023-02-17T04:44:56.654Z,28.86
2023-02-17T04:49:56.661Z,36.43
2023-02-17T04:54:56.683Z,30.7
2023-02-17T04:59:56.660Z,28.16
2023-02-17T05:04:56.711Z,26.72
2023-02-17T05:09:56.686Z,33.05
2023-02-17T05:14:56.653Z,31.15
2023-02-17T05:19:56.686Z,26.86
2023-02-17T05:24:56.700Z,26.04
2023-02-17T05:29:56.695Z,23.96
2023-02-17T05:34:56.683Z,25.12
2023-02-17T05:39:56.674Z,24.78
2023-02-17T05:44:56.681Z,24.48
2023-02-17T05:49:56.703Z,23.18
2023-02-17T05:54:56.674Z,22.4
2023-02-17T05:59:56.739Z,22.81
2023-02-17T06:04:56.820Z,22.8
2023-02-17T06:09:56.710Z,22.79
2023-02-17T06:14:56.680Z,23.41
2023-02-17T06:19:56.689Z,20.05
2023-02-17T06:24:56.737Z,21.15
2023-02-17T06:29:56.745Z,20.2
2023-02-17T06:34:56.693Z,19.77
2023-02-17T06:39:56.687Z,19.2
2023-02-17T06:44:56.735Z,20.5
2023-02-17T06:49:56.691Z,21.27
2023-02-17T06:54:56.718Z,19.06
2023-02-17T06:59:56.710Z,18.4
2023-02-17T07:04:56.699Z,17.86
2023-02-17T07:09:56.701Z,19.67
2023-02-17T07:14:56.703Z,18.66
2023-02-17T07:19:56.700Z,18.19
2023-02-17T07:24:56.709Z,19.5
2023-02-17T07:29:56.747Z,19.29
2023-02-17T07:34:56.706Z,18.61
2023-02-17T07:39:56.728Z,18.37
2023-02-17T07:44:56.753Z,17.03
2023-02-17T07:49:56.749Z,16.95
2023-02-17T07:54:56.768Z,16.87
2023-02-17T07:59:56.741Z,20.22
2023-02-17T08:04:56.728Z,21.13
2023-02-17T08:09:56.714Z,20.51
2023-02-17T08:14:56.730Z,18.68
2023-02-17T08:19:56.771Z,19.8
2023-02-17T08:24:56.733Z,18.94
2023-02-17T08:29:56.820Z,20.26
2023-02-17T08:34:56.766Z,19.38
2023-02-17T08:39:56.751Z,22.28
2023-02-17T08:44:56.750Z,22.49
2023-02-17T08:49:56.756Z,23.12
2023-02-17T08:54:56.748Z,25.96
2023-02-17T08:59:56.758Z,25
2023-02-17T09:04:56.934Z,26.44
2023-02-17T09:09:56.759Z,26.16
2023-02-17T09:14:56.781Z,25.45
2023-02-17T09:19:56.840Z,23.97
2023-02-17T09:24:56.755Z,24.47
2023-02-17T09:29:56.838Z,22.33
2023-02-17T09:34:56.786Z,23.44
2023-02-17T09:39:56.810Z,25.08
2023-02-17T09:44:56.804Z,25.48
2023-02-17T09:49:56.836Z,25.15
2023-02-17T09:54:56.815Z,24.09
2023-02-17T09:59:56.815Z,24.16
2023-02-17T10:04:56.860Z,25.43
2023-02-17T10:09:56.781Z,24.66
2023-02-17T10:14:56.849Z,25.65
2023-02-17T10:19:56.797Z,28.31
2023-02-17T10:24:56.783Z,29.13
2023-02-17T10:29:56.868Z,27.84
2023-02-17T10:34:56.805Z,25.8
2023-02-17T10:39:56.783Z,25.7
2023-02-17T10:44:56.868Z,25.15
2023-02-17T10:49:56.826Z,27.01
2023-02-17T10:54:56.787Z,26.43
2023-02-17T10:59:56.821Z,28.21
2023-02-17T11:04:56.799Z,28.3
2023-02-17T11:09:56.807Z,32
2023-02-17T11:14:56.812Z,29.65
2023-02-17T11:19:56.797Z,32.13
2023-02-17T11:24:56.817Z,29.49
2023-02-17T11:29:56.870Z,28.65
2023-02-17T11:34:56.813Z,28.3
2023-02-17T11:39:56.815Z,23.15
2023-02-17T11:44:56.836Z,26.73
2023-02-17T11:49:56.828Z,26.8
2023-02-17T11:54:56.875Z,29.26
2023-02-17T11:59:56.809Z,29.32
2023-02-17T12:04:56.867Z,31.97
2023-02-17T12:09:56.821Z,32.24
2023-02-17T12:14:56.817Z,32.68
2023-02-17T12:19:56.823Z,32.1
2023-02-17T12:24:56.832Z,33.92
2023-02-17T12:29:56.853Z,35.75
2023-02-17T12:34:56.847Z,35.98
2023-02-17T12:39:56.848Z,35.5
2023-02-17T12:44:56.832Z,36.87
2023-02-17T12:49:56.877Z,37.23
2023-02-17T12:54:56.835Z,38.82
2023-02-17T12:59:56.838Z,38.94
2023-02-17T13:04:56.907Z,38.14
2023-02-17T13:09:56.874Z,39.28
2023-02-17T13:14:56.878Z,36.62
2023-02-17T13:19:56.872Z,37.2
2023-02-17T13:24:56.892Z,33.78
2023-02-17T13:29:56.955Z,33.32
2023-02-17T13:34:56.888Z,35.11
2023-02-17T13:39:56.896Z,33.72
2023-02-17T13:44:56.887Z,34.47
2023-02-17T13:49:56.987Z,32.44
2023-02-17T13:54:56.890Z,33.96
2023-02-17T13:59:56.881Z,32.25
2023-02-17T14:04:56.912Z,32.4
2023-02-17T14:09:56.873Z,32.3
2023-02-17T14:14:56.869Z,30.29
2023-02-17T14:19:56.879Z,32.01
2023-02-17T14:24:56.879Z,30.95
2023-02-17T14:29:56.930Z,28.67
2023-02-17T14:34:56.880Z,28.83
2023-02-17T14:39:56.921Z,27.64
2023-02-17T14:44:56.906Z,27.19
2023-02-17T14:49:56.896Z,26.1
2023-02-17T14:54:56.903Z,26.24
2023-02-17T14:59:56.901Z,26.98
2023-02-17T15:04:56.933Z,26.64
2023-02-17T15:09:56.913Z,28.93
2023-02-17T15:14:56.920Z,26.11
2023-02-17T15:19:56.907Z,27.05
2023-02-17T15:24:56.903Z,25.49
2023-02-17T15:29:56.980Z,25.58
2023-02-17T15:34:56.907Z,24.52
2023-02-17T15:39:56.927Z,24.82
2023-02-17T15:44:56.951Z,26.67
2023-02-17T15:49:56.941Z,24.87
2023-02-17T15:54:56.935Z,24.73
2023-02-17T15:59:56.909Z,24.8
2023-02-17T16:04:56.921Z,26.61
2023-02-17T16:09:56.939Z,26.8
2023-02-17T16:14:56.930Z,24.92
2023-02-17T16:19:56.959Z,27.82
2023-02-17T16:24:56.938Z,25.97
2023-02-17T16:29:57.002Z,33.7
2023-02-17T16:34:56.932Z,31.28
2023-02-17T16:39:56.931Z,28.73
2023-02-17T16:44:56.944Z,28.92
2023-02-17T16:49:56.942Z,25.71
2023-02-17T16:54:56.964Z,31.59
2023-02-17T16:59:56.947Z,28.67
2023-02-17T17:04:56.944Z,29.63
2023-02-17T17:10:15.045Z,30.2
2023-02-17T17:14:56.981Z,29.64
2023-02-17T17:19:56.944Z,29.8
2023-02-17T17:24:56.978Z,29.22
2023-02-17T17:29:56.987Z,29.49
2023-02-17T17:34:56.948Z,28.28
2023-02-17T17:39:56.978Z,29.96
2023-02-17T17:44:56.990Z,29.03
2023-02-17T17:49:56.959Z,28.75
2023-02-17T17:54:56.999Z,31.4
2023-02-17T17:59:57.095Z,30.71
2023-02-17T18:04:56.996Z,31.36
2023-02-17T18:09:57.015Z,28.24
2023-02-17T18:14:56.974Z,28.65
2023-02-17T18:19:57.008Z,28.62
2023-02-17T18:24:56.999Z,30.51
2023-02-17T18:29:57.025Z,32.51
2023-02-17T18:34:56.973Z,33.97
2023-02-17T18:39:56.973Z,32.55
2023-02-17T18:44:57.019Z,29.26
2023-02-17T18:49:56.978Z,30.14
2023-02-17T18:54:56.970Z,30.08
2023-02-17T18:59:56.976Z,28.01
2023-02-17T19:04:56.982Z,27.84
2023-02-17T19:09:56.983Z,27.04
2023-02-17T19:14:57.024Z,26.79
2023-02-17T19:19:56.979Z,27.57
2023-02-17T19:24:57.012Z,28.24
2023-02-17T19:29:57.017Z,25.82
2023-02-17T19:34:56.986Z,27.44
2023-02-17T19:39:57.038Z,24.7
2023-02-17T19:44:57.010Z,26.1
2023-02-17T19:49:57.015Z,23.79
2023-02-17T19:54:57.053Z,25.24
2023-02-17T19:59:57.032Z,24.63
2023-02-17T20:04:57.008Z,22.12
2023-02-17T20:09:57.006Z,22.4
2023-02-17T20:14:57.027Z,21.4
2023-02-17T20:19:57.048Z,21.02
2023-02-17T20:24:57.045Z,19.59
2023-02-17T20:29:57.071Z,19.92
2023-02-17T20:34:57.055Z,20.45
2023-02-17T20:39:57.015Z,17.79
2023-02-17T20:44:57.040Z,19.21
2023-02-17T20:49:57.021Z,17.74
2023-02-17T20:54:57.026Z,18.87
2023-02-17T20:59:57.033Z,18.53
2023-02-17T21:04:57.034Z,16.96
2023-02-17T21:09:57.030Z,15.49
2023-02-17T21:14:57.047Z,16.07
2023-02-17T21:19:57.030Z,16.26
2023-02-17T21:24:57.031Z,15.88
2023-02-17T21:29:57.060Z,13.75
2023-02-17T21:34:57.060Z,15.51
2023-02-17T21:39:57.070Z,13.53
2023-02-17T21:44:57.059Z,12.95
2023-02-17T21:49:57.105Z,13.8
2023-02-17T21:54:57.057Z,11.9
2023-02-17T21:59:57.041Z,12.46
2023-02-17T22:04:57.091Z,11.97
2023-02-17T22:09:57.050Z,12.29
2023-02-17T22:14:57.053Z,11.18
2023-02-17T22:19:57.065Z,10.39
2023-02-17T22:24:57.050Z,10.94
2023-02-17T22:29:57.092Z,10.56
2023-02-17T22:34:57.061Z,10.08
2023-02-17T22:39:57.057Z,10.21
2023-02-17T22:44:57.071Z,9.95
2023-02-17T22:49:57.064Z,9.24
2023-02-17T22:54:57.081Z,10.62
2023-02-17T22:59:57.072Z,10.54
2023-02-17T23:04:57.077Z,8.52
2023-02-17T23:09:57.067Z,9.14
2023-02-17T23:14:57.108Z,8.62
2023-02-17T23:19:57.128Z,8.01
2023-02-17T23:24:57.117Z,7.74
2023-02-17T23:29:57.126Z,7.97
2023-02-17T23:34:57.075Z,7.28
2023-02-17T23:39:57.094Z,7.26
2023-02-17T23:44:57.098Z,6.45
2023-02-17T23:49:57.101Z,6.43
2023-02-17T23:54:57.086Z,6.91
2023-02-17T23:59:57.090Z,6.16
